createdAt,value
2022-09-04T00:03:03.994Z,21.70
2022-09-04T00:05:40.554Z,22.00
2022-09-04T00:08:49.024Z,22.40
2022-09-04T00:11:32.737Z,22.60
2022-09-04T00:14:51.100Z,22.60
2022-09-04T00:17:32.021Z,22.50
2022-09-04T00:37:52.964Z,23.20
2022-09-04T00:40:36.004Z,23.10
2022-09-04T00:44:04.547Z,23.30
2022-09-04T00:50:41.021Z,23.60
2022-09-04T00:53:43.408Z,23.70
2022-09-04T00:56:53.241Z,23.80
2022-09-04T00:59:49.127Z,23.60
2022-09-04T01:02:35.397Z,23.30
2022-09-04T01:05:19.887Z,23.40
2022-09-04T01:08:07.338Z,23.20
2022-09-04T01:10:50.126Z,23.20
2022-09-04T01:13:29.837Z,23.20
2022-09-04T01:16:10.718Z,23.00
2022-09-04T01:19:00.985Z,22.90
2022-09-04T01:22:06.897Z,23.20
2022-09-04T01:28:12.862Z,23.00
2022-09-04T01:30:52.966Z,22.50
2022-09-04T01:33:33.384Z,22.40
2022-09-04T01:36:12.202Z,22.10
2022-09-04T01:38:52.142Z,22.00
2022-09-04T01:41:29.429Z,21.80
2022-09-04T01:44:03.434Z,21.70
2022-09-04T01:46:53.214Z,21.50
2022-09-04T01:49:33.113Z,21.40
2022-09-04T01:52:14.391Z,21.20
2022-09-04T01:54:55.775Z,21.00
2022-09-04T01:57:39.923Z,20.90
2022-09-04T02:00:16.991Z,20.70
2022-09-04T02:02:58.651Z,20.70
2022-09-04T02:05:36.830Z,20.60
2022-09-04T02:08:27.981Z,20.50
2022-09-04T02:11:05.431Z,20.50
2022-09-04T02:13:54.910Z,20.40
2022-09-04T02:16:37.937Z,20.30
2022-09-04T02:19:23.824Z,20.20
2022-09-04T02:22:03.709Z,20.20
2022-09-04T02:24:42.604Z,20.10
2022-09-04T02:27:20.131Z,20.00
2022-09-04T02:29:56.267Z,20.00
2022-09-04T02:32:39.141Z,20.10
2022-09-04T02:38:32.872Z,19.90
2022-09-04T02:41:13.670Z,19.80
2022-09-04T02:44:10.301Z,19.80
2022-09-04T02:46:57.400Z,19.70
2022-09-04T02:49:41.902Z,19.50
2022-09-04T02:52:25.420Z,19.40
2022-09-04T02:55:19.142Z,19.30
2022-09-04T02:58:19.613Z,19.10
2022-09-04T03:03:44.472Z,18.90
2022-09-04T03:06:27.324Z,18.90
2022-09-04T03:09:06.564Z,18.80
2022-09-04T03:17:49.080Z,18.80
2022-09-04T03:20:26.032Z,18.80
2022-09-04T03:26:41.295Z,18.80
2022-09-04T03:29:28.160Z,18.70
2022-09-04T03:38:11.579Z,18.50
2022-09-04T03:44:05.077Z,18.40
2022-09-04T03:47:14.594Z,18.30
2022-09-04T03:50:02.452Z,18.20
2022-09-04T03:52:40.088Z,18.20
2022-09-04T03:55:27.007Z,18.10
2022-09-04T03:58:13.181Z,18.10
2022-09-04T04:09:42.904Z,17.80
2022-09-04T04:12:34.350Z,17.80
2022-09-04T04:15:23.082Z,17.80
2022-09-04T04:18:32.362Z,17.70
2022-09-04T04:21:18.590Z,17.70
2022-09-04T04:27:32.867Z,17.60
2022-09-04T04:30:17.298Z,17.50
2022-09-04T04:33:02.049Z,17.50
2022-09-04T04:35:43.173Z,17.40
2022-09-04T04:38:31.208Z,17.40
2022-09-04T04:41:16.805Z,17.40
2022-09-04T04:44:03.129Z,17.30
2022-09-04T04:46:49.159Z,17.30
2022-09-04T04:49:35.854Z,17.30
2022-09-04T04:52:30.114Z,17.20
2022-09-04T04:55:22.184Z,17.20
2022-09-04T04:58:20.939Z,17.20
2022-09-04T05:00:59.057Z,17.20
2022-09-04T05:03:45.332Z,17.20
2022-09-04T05:06:21.984Z,17.20
2022-09-04T05:09:07.043Z,17.10
2022-09-04T05:11:47.180Z,17.10
2022-09-04T05:14:36.444Z,17.10
2022-09-04T05:17:18.089Z,17.10
2022-09-04T05:19:55.456Z,17.10
2022-09-04T05:22:35.896Z,17.00
2022-09-04T05:25:16.786Z,17.00
2022-09-04T05:28:10.542Z,16.90
2022-09-04T05:30:50.299Z,17.00
2022-09-04T05:33:28.759Z,16.90
2022-09-04T05:36:05.663Z,16.90
2022-09-04T05:38:47.810Z,16.90
2022-09-04T05:41:39.671Z,16.80
2022-09-04T05:44:24.403Z,16.80
2022-09-04T05:47:10.548Z,16.80
2022-09-04T05:50:02.338Z,16.80
2022-09-04T05:52:57.783Z,16.70
2022-09-04T05:55:51.403Z,16.70
2022-09-04T05:58:39.884Z,16.60
2022-09-04T06:01:28.249Z,16.60
2022-09-04T06:04:17.409Z,16.60
2022-09-04T06:06:56.823Z,16.50
2022-09-04T06:09:42.730Z,16.40
2022-09-04T06:12:53.666Z,16.40
2022-09-04T06:15:39.546Z,16.40
2022-09-04T06:18:57.690Z,16.30
2022-09-04T06:22:06.536Z,16.30
2022-09-04T06:24:57.390Z,16.30
2022-09-04T06:27:57.959Z,16.30
2022-09-04T06:30:34.902Z,16.30
2022-09-04T06:33:56.458Z,16.30
2022-09-04T06:36:48.875Z,16.20
2022-09-04T06:39:42.454Z,16.30
2022-09-04T06:42:27.541Z,16.30
2022-09-04T06:45:13.595Z,16.20
2022-09-04T06:47:58.410Z,16.20
2022-09-04T06:50:36.267Z,16.20
2022-09-04T06:53:21.311Z,16.20
2022-09-04T06:56:04.834Z,16.10
2022-09-04T06:59:01.530Z,16.10
2022-09-04T07:01:43.884Z,16.10
2022-09-04T07:04:30.241Z,16.10
2022-09-04T07:07:10.930Z,16.00
2022-09-04T07:09:47.428Z,16.00
2022-09-04T07:13:00.456Z,16.10
2022-09-04T07:16:01.985Z,16.10
2022-09-04T07:19:01.608Z,16.10
2022-09-04T07:21:41.367Z,16.20
2022-09-04T07:24:49.706Z,16.20
2022-09-04T07:27:31.540Z,16.20
2022-09-04T07:30:10.840Z,16.30
2022-09-04T07:32:52.608Z,16.20
2022-09-04T07:35:28.512Z,16.20
2022-09-04T07:38:04.976Z,16.20
2022-09-04T07:40:41.643Z,16.20
2022-09-04T07:43:22.651Z,16.10
2022-09-04T07:46:05.221Z,16.10
2022-09-04T07:48:44.952Z,16.10
2022-09-04T07:51:19.650Z,16.10
2022-09-04T07:54:09.460Z,16.00
2022-09-04T07:57:01.023Z,16.00
2022-09-04T08:00:19.472Z,16.00
2022-09-04T08:03:22.584Z,15.90
2022-09-04T08:06:08.055Z,15.90
2022-09-04T08:09:12.891Z,15.90
2022-09-04T08:12:26.350Z,15.90
2022-09-04T08:14:59.603Z,15.90
2022-09-04T08:17:48.146Z,15.90
2022-09-04T08:20:54.876Z,15.90
2022-09-04T08:24:05.368Z,15.80
2022-09-04T08:26:50.129Z,15.80
2022-09-04T08:29:46.684Z,15.80
2022-09-04T08:33:03.373Z,15.80
2022-09-04T08:35:38.632Z,15.80
2022-09-04T08:38:32.556Z,15.80
2022-09-04T08:41:39.269Z,15.70
2022-09-04T08:44:51.609Z,15.60
2022-09-04T08:48:14.817Z,15.60
2022-09-04T08:51:15.089Z,15.50
2022-09-04T08:54:18.069Z,15.40
2022-09-04T08:57:01.616Z,15.30
2022-09-04T09:00:10.689Z,15.30
2022-09-04T09:03:21.084Z,15.20
2022-09-04T09:06:21.809Z,15.30
2022-09-04T09:09:43.373Z,15.20
2022-09-04T09:12:49.346Z,15.10
2022-09-04T09:15:58.965Z,15.00
2022-09-04T09:18:52.509Z,15.00
2022-09-04T09:21:36.473Z,15.00
2022-09-04T09:24:47.768Z,15.00
2022-09-04T09:28:04.595Z,14.90
2022-09-04T09:34:20.978Z,14.80
2022-09-04T09:37:15.013Z,14.80
2022-09-04T09:40:17.901Z,14.80
2022-09-04T09:43:28.705Z,14.80
2022-09-04T09:46:40.058Z,14.80
2022-09-04T09:49:48.349Z,14.80
2022-09-04T09:53:07.295Z,14.70
2022-09-04T09:55:56.513Z,14.70
2022-09-04T09:59:07.184Z,14.70
2022-09-04T10:02:02.779Z,14.80
2022-09-04T10:05:11.738Z,14.90
2022-09-04T10:08:15.595Z,15.20
2022-09-04T10:11:28.340Z,15.30
2022-09-04T10:14:32.961Z,15.70
2022-09-04T10:17:29.422Z,16.00
2022-09-04T10:20:40.025Z,16.10
2022-09-04T10:23:31.866Z,16.20
2022-09-04T10:26:22.463Z,16.20
2022-09-04T10:29:29.945Z,16.20
2022-09-04T10:32:26.886Z,16.10
2022-09-04T10:35:28.594Z,16.20
2022-09-04T10:38:29.833Z,16.20
2022-09-04T10:41:33.830Z,16.10
2022-09-04T10:44:30.190Z,16.20
2022-09-04T10:47:14.896Z,16.20
2022-09-04T10:50:09.032Z,16.10
2022-09-04T10:53:02.795Z,16.10
2022-09-04T10:55:51.559Z,16.10
2022-09-04T10:58:32.797Z,16.10
2022-09-04T11:01:39.115Z,16.10
2022-09-04T11:04:46.520Z,16.00
2022-09-04T11:07:36.274Z,15.90
2022-09-04T11:10:29.337Z,15.80
2022-09-04T11:13:35.460Z,15.70
2022-09-04T11:16:23.119Z,15.60
2022-09-04T11:19:26.000Z,15.50
2022-09-04T11:22:46.209Z,15.40
2022-09-04T11:26:06.832Z,15.30
2022-09-04T11:29:14.908Z,15.20
2022-09-04T11:32:16.685Z,15.20
2022-09-04T11:35:21.002Z,15.00
2022-09-04T11:38:12.675Z,14.90
2022-09-04T11:41:16.635Z,14.90
2022-09-04T11:44:35.603Z,14.80
2022-09-04T11:47:31.970Z,14.80
2022-09-04T11:50:17.518Z,14.70
2022-09-04T11:53:05.368Z,14.70
2022-09-04T11:56:15.549Z,14.60
2022-09-04T11:59:21.726Z,14.60
2022-09-04T12:02:11.933Z,14.60
2022-09-04T12:05:10.802Z,14.60
2022-09-04T12:07:54.420Z,14.50
2022-09-04T12:10:38.375Z,14.50
2022-09-04T12:13:44.825Z,14.50
2022-09-04T12:16:48.036Z,14.50
2022-09-04T12:20:07.207Z,14.50
2022-09-04T12:23:19.231Z,14.60
2022-09-04T12:26:24.436Z,14.60
2022-09-04T12:29:28.505Z,14.60
2022-09-04T12:32:23.061Z,14.60
2022-09-04T12:35:21.997Z,14.60
2022-09-04T12:38:22.962Z,14.60
2022-09-04T12:41:09.915Z,14.60
2022-09-04T12:44:05.541Z,14.60
2022-09-04T12:46:52.200Z,14.60
2022-09-04T12:49:45.575Z,14.60
2022-09-04T12:52:29.125Z,14.60
2022-09-04T12:55:11.001Z,14.60
2022-09-04T12:57:56.948Z,14.60
2022-09-04T13:00:40.864Z,14.60
2022-09-04T13:03:29.169Z,14.70
2022-09-04T13:06:22.485Z,14.70
2022-09-04T13:09:08.257Z,14.70
2022-09-04T13:11:50.570Z,14.60
2022-09-04T13:14:58.384Z,14.60
2022-09-04T13:17:37.868Z,14.60
2022-09-04T13:20:22.008Z,14.60
2022-09-04T13:23:19.932Z,14.50
2022-09-04T13:26:08.073Z,14.50
2022-09-04T13:28:51.474Z,14.50
2022-09-04T13:31:46.602Z,14.40
2022-09-04T13:34:26.557Z,14.40
2022-09-04T13:37:07.728Z,14.30
2022-09-04T13:40:02.078Z,14.40
2022-09-04T13:43:06.319Z,14.30
2022-09-04T13:45:42.550Z,14.20
2022-09-04T13:48:15.458Z,14.20
2022-09-04T13:50:56.727Z,14.20
2022-09-04T13:53:32.041Z,14.20
2022-09-04T13:56:11.316Z,14.20
2022-09-04T13:58:47.927Z,14.20
2022-09-04T14:01:23.533Z,14.20
2022-09-04T14:03:57.782Z,14.20
2022-09-04T14:06:33.568Z,14.30
2022-09-04T14:09:06.313Z,14.30
2022-09-04T14:12:12.091Z,14.30
2022-09-04T14:15:22.165Z,14.20
2022-09-04T14:18:01.925Z,14.20
2022-09-04T14:20:37.345Z,14.30
2022-09-04T14:23:21.358Z,14.20
2022-09-04T14:25:59.644Z,14.20
2022-09-04T14:28:38.102Z,14.30
2022-09-04T14:31:18.582Z,14.30
2022-09-04T14:33:59.120Z,14.40
2022-09-04T14:36:40.373Z,14.50
2022-09-04T14:39:22.664Z,14.60
2022-09-04T14:42:23.382Z,14.70
2022-09-04T14:45:11.165Z,14.90
2022-09-04T14:47:48.392Z,15.10
2022-09-04T14:50:21.578Z,15.50
2022-09-04T14:52:55.985Z,15.80
2022-09-04T14:55:33.024Z,16.20
2022-09-04T14:58:13.393Z,16.40
2022-09-04T15:01:03.717Z,16.50
2022-09-04T15:03:40.659Z,16.60
2022-09-04T15:06:22.574Z,16.60
2022-09-04T15:08:57.895Z,16.60
2022-09-04T15:11:37.672Z,16.70
2022-09-04T15:14:25.315Z,16.80
2022-09-04T15:17:03.051Z,16.90
2022-09-04T15:19:47.615Z,17.10
2022-09-04T15:22:23.151Z,17.30
2022-09-04T15:25:01.412Z,17.50
2022-09-04T15:27:45.133Z,17.80
2022-09-04T15:30:24.291Z,17.90
2022-09-04T15:33:07.595Z,18.00
2022-09-04T15:35:40.030Z,18.20
2022-09-04T15:38:23.714Z,18.10
2022-09-04T15:41:16.696Z,18.10
2022-09-04T15:43:56.294Z,18.10
2022-09-04T15:46:45.123Z,18.00
2022-09-04T15:49:41.139Z,17.90
2022-09-04T15:52:29.111Z,17.90
2022-09-04T15:55:11.062Z,17.80
2022-09-04T15:57:58.044Z,17.80
2022-09-04T16:00:33.865Z,17.80
2022-09-04T16:03:19.407Z,18.10
2022-09-04T16:05:54.999Z,18.60
2022-09-04T16:08:32.951Z,18.90
2022-09-04T16:14:26.464Z,19.60
2022-09-04T16:17:21.025Z,19.70
2022-09-04T16:20:01.365Z,20.00
2022-09-04T16:22:44.521Z,19.50
2022-09-04T16:25:30.751Z,19.20
2022-09-04T16:28:10.047Z,19.10
2022-09-04T16:30:44.728Z,19.20
2022-09-04T16:33:29.646Z,19.20
2022-09-04T16:36:06.637Z,19.30
2022-09-04T16:41:52.998Z,19.30
2022-09-04T16:44:31.814Z,19.30
2022-09-04T16:47:11.292Z,19.40
2022-09-04T16:50:09.842Z,19.50
2022-09-04T16:53:09.409Z,19.60
2022-09-04T16:55:53.529Z,19.80
2022-09-04T16:58:40.938Z,19.90
2022-09-04T17:01:32.046Z,20.00
2022-09-04T17:04:26.245Z,20.10
2022-09-04T17:07:40.199Z,20.00
2022-09-04T17:10:37.842Z,20.00
2022-09-04T17:13:27.944Z,19.90
2022-09-04T17:16:18.836Z,20.10
2022-09-04T17:18:54.384Z,20.20
2022-09-04T17:24:25.210Z,20.40
2022-09-04T17:28:57.382Z,20.40
2022-09-04T17:29:18.570Z,20.60
2022-09-04T17:30:44.951Z,20.90
2022-09-04T17:40:36.456Z,21.20
2022-09-04T17:40:42.621Z,21.00
2022-09-04T17:40:42.888Z,21.10
2022-09-04T17:42:17.325Z,21.40
2022-09-04T17:45:01.192Z,21.50
2022-09-04T17:47:39.546Z,21.70
2022-09-04T17:50:17.482Z,21.70
2022-09-04T17:53:01.843Z,21.90
2022-09-04T17:55:47.273Z,21.90
2022-09-04T17:58:30.058Z,22.00
2022-09-04T18:01:15.015Z,22.00
2022-09-04T18:04:19.672Z,21.80
2022-09-04T18:06:59.376Z,22.00
2022-09-04T18:09:41.240Z,22.10
2022-09-04T18:12:22.411Z,22.20
2022-09-04T18:15:32.144Z,21.90
2022-09-04T18:18:08.562Z,21.90
2022-09-04T18:20:46.076Z,22.10
2022-09-04T18:23:51.336Z,22.10
2022-09-04T18:26:40.020Z,22.10
2022-09-04T18:33:25.310Z,21.90
2022-09-04T18:37:16.829Z,21.80
2022-09-04T18:37:18.210Z,21.80
2022-09-04T18:38:45.181Z,21.70
2022-09-04T18:47:13.439Z,21.50
2022-09-04T18:50:22.333Z,21.40
2022-09-04T18:50:39.987Z,21.50
2022-09-04T18:53:26.743Z,21.50
2022-09-04T18:56:20.133Z,21.80
2022-09-04T18:59:03.529Z,21.90
2022-09-04T19:01:53.883Z,21.90
2022-09-04T19:04:45.129Z,21.90
2022-09-04T19:07:30.833Z,22.00
2022-09-04T19:10:13.024Z,21.90
2022-09-04T19:13:05.012Z,22.10
2022-09-04T19:16:07.368Z,22.10
2022-09-04T19:18:50.276Z,22.30
2022-09-04T19:21:32.013Z,22.50
2022-09-04T19:24:18.596Z,22.50
2022-09-04T19:33:14.202Z,22.10
2022-09-04T19:36:05.253Z,22.20
2022-09-04T19:45:55.903Z,22.10
2022-09-04T19:58:13.389Z,21.70
2022-09-04T20:00:51.631Z,21.90
2022-09-04T20:03:29.462Z,21.70
2022-09-04T20:06:19.773Z,21.70
2022-09-04T20:08:58.586Z,21.90
2022-09-04T20:11:36.903Z,22.10
2022-09-04T20:14:18.511Z,22.20
2022-09-04T20:17:10.779Z,22.30
2022-09-04T20:19:50.172Z,22.60
2022-09-04T20:22:35.623Z,22.80
2022-09-04T20:25:26.381Z,22.80
2022-09-04T20:28:25.885Z,22.90
2022-09-04T20:31:35.822Z,22.70
2022-09-04T20:34:35.518Z,22.70
2022-09-04T20:40:21.966Z,23.20
2022-09-04T20:43:15.438Z,23.30
2022-09-04T20:49:09.532Z,23.20
2022-09-04T20:52:50.934Z,23.40
2022-09-04T20:53:00.198Z,23.50
2022-09-04T20:55:20.576Z,23.30
2022-09-04T21:02:44.589Z,23.40
2022-09-04T21:03:17.734Z,23.30
2022-09-04T21:07:23.970Z,23.70
2022-09-04T21:10:22.969Z,23.80
2022-09-04T21:13:12.284Z,23.90
2022-09-04T21:16:06.507Z,23.90
2022-09-04T21:19:28.176Z,24.10
2022-09-04T21:22:21.072Z,23.90
2022-09-04T21:25:18.374Z,23.80
2022-09-04T21:28:12.209Z,23.80
2022-09-04T21:31:08.277Z,23.60
2022-09-04T21:33:50.051Z,23.70
2022-09-04T21:36:29.902Z,23.80
2022-09-04T21:39:36.604Z,23.80
2022-09-04T21:42:40.706Z,23.70
2022-09-04T21:45:34.065Z,23.50
2022-09-04T21:48:33.642Z,23.30
2022-09-04T21:51:28.387Z,23.50
2022-09-04T21:54:37.447Z,23.40
2022-09-04T22:02:40.618Z,23.40
2022-09-04T22:02:43.257Z,23.40
2022-09-04T22:04:16.634Z,23.60
2022-09-04T22:10:21.718Z,23.50
2022-09-04T22:13:42.343Z,23.20
2022-09-04T22:13:47.845Z,23.10
2022-09-04T22:16:10.124Z,23.00
2022-09-04T22:19:18.218Z,23.20
2022-09-04T22:22:13.722Z,23.30
2022-09-04T22:25:17.404Z,23.40
2022-09-04T22:28:47.715Z,23.60
2022-09-04T22:32:00.849Z,23.70
2022-09-04T22:35:04.863Z,23.60
2022-09-04T22:38:08.361Z,23.70
2022-09-04T22:40:56.847Z,23.80
2022-09-04T22:43:46.678Z,23.70
2022-09-04T22:46:40.157Z,23.70
2022-09-04T22:49:49.567Z,23.70
2022-09-04T22:52:40.767Z,23.50
2022-09-04T22:55:40.009Z,23.50
2022-09-04T22:58:43.409Z,23.50
2022-09-04T23:01:31.481Z,22.70
2022-09-04T23:04:18.092Z,22.60
2022-09-04T23:13:43.349Z,22.70
2022-09-04T23:13:53.328Z,22.60
2022-09-04T23:14:20.559Z,22.80
2022-09-04T23:17:37.603Z,23.10
2022-09-04T23:26:36.320Z,23.30
2022-09-04T23:26:46.607Z,23.40
2022-09-04T23:27:33.025Z,23.40
2022-09-04T23:30:25.518Z,23.30
2022-09-04T23:33:33.660Z,23.40
2022-09-04T23:36:35.117Z,23.50
2022-09-04T23:39:32.006Z,23.50
2022-09-04T23:42:24.948Z,23.50
2022-09-04T23:45:23.737Z,23.50
2022-09-04T23:48:11.603Z,23.40
2022-09-04T23:50:55.740Z,22.90
2022-09-04T23:53:38.444Z,22.90
2022-09-04T23:56:31.678Z,23.00
2022-09-04T23:59:33.188Z,22.90
